sensor_id;sensor_type;location;lat;lon;timestamp;P1;durP1;ratioP1;P2;durP2;ratioP2
12155;SDS011;6141;49.092;8.516;2023-01-19T00:01:42;15.03;;;10.63;;
12155;SDS011;6141;49.092;8.516;2023-01-19T00:04:11;14.97;;;10.50;;
12155;SDS011;6141;49.092;8.516;2023-01-19T00:06:39;12.03;;;10.30;;
12155;SDS011;6141;49.092;8.516;2023-01-19T00:09:08;10.80;;;9.70;;
12155;SDS011;6141;49.092;8.516;2023-01-19T00:11:36;13.17;;;10.77;;
12155;SDS011;6141;49.092;8.516;2023-01-19T00:14:04;15.23;;;10.90;;
12155;SDS011;6141;49.092;8.516;2023-01-19T00:16:34;11.37;;;9.90;;
12155;SDS011;6141;49.092;8.516;2023-01-19T00:19:02;12.90;;;9.90;;
12155;SDS011;6141;49.092;8.516;2023-01-19T00:21:31;12.80;;;9.33;;
12155;SDS011;6141;49.092;8.516;2023-01-19T00:23:59;11.83;;;9.07;;
12155;SDS011;6141;49.092;8.516;2023-01-19T00:26:27;12.67;;;9.80;;
12155;SDS011;6141;49.092;8.516;2023-01-19T00:28:56;12.40;;;9.40;;
12155;SDS011;6141;49.092;8.516;2023-01-19T00:31:24;12.73;;;10.53;;
12155;SDS011;6141;49.092;8.516;2023-01-19T00:33:56;10.17;;;8.90;;
12155;SDS011;6141;49.092;8.516;2023-01-19T00:36:25;10.90;;;9.73;;
12155;SDS011;6141;49.092;8.516;2023-01-19T00:38:53;12.90;;;9.80;;
12155;SDS011;6141;49.092;8.516;2023-01-19T00:41:21;13.87;;;9.47;;
12155;SDS011;6141;49.092;8.516;2023-01-19T00:44:10;14.03;;;10.17;;
12155;SDS011;6141;49.092;8.516;2023-01-19T00:46:37;11.23;;;9.67;;
12155;SDS011;6141;49.092;8.516;2023-01-19T00:49:07;13.00;;;9.80;;
12155;SDS011;6141;49.092;8.516;2023-01-19T00:51:35;11.70;;;9.37;;
12155;SDS011;6141;49.092;8.516;2023-01-19T00:54:04;11.10;;;9.10;;
12155;SDS011;6141;49.092;8.516;2023-01-19T00:56:35;10.37;;;9.03;;
12155;SDS011;6141;49.092;8.516;2023-01-19T00:59:04;12.27;;;9.83;;
12155;SDS011;6141;49.092;8.516;2023-01-19T01:01:32;12.20;;;9.27;;
12155;SDS011;6141;49.092;8.516;2023-01-19T01:04:13;12.57;;;8.73;;
12155;SDS011;6141;49.092;8.516;2023-01-19T01:06:41;9.67;;;8.63;;
12155;SDS011;6141;49.092;8.516;2023-01-19T01:09:09;11.53;;;8.87;;
12155;SDS011;6141;49.092;8.516;2023-01-19T01:11:38;11.40;;;9.60;;
12155;SDS011;6141;49.092;8.516;2023-01-19T01:14:06;10.53;;;8.73;;
12155;SDS011;6141;49.092;8.516;2023-01-19T01:16:36;10.50;;;9.10;;
12155;SDS011;6141;49.092;8.516;2023-01-19T01:19:05;10.60;;;8.70;;
12155;SDS011;6141;49.092;8.516;2023-01-19T01:21:36;11.03;;;8.97;;
12155;SDS011;6141;49.092;8.516;2023-01-19T01:24:05;10.63;;;8.30;;
12155;SDS011;6141;49.092;8.516;2023-01-19T01:26:34;10.00;;;8.43;;
12155;SDS011;6141;49.092;8.516;2023-01-19T01:29:03;11.00;;;8.97;;
12155;SDS011;6141;49.092;8.516;2023-01-19T01:31:32;9.67;;;8.50;;
12155;SDS011;6141;49.092;8.516;2023-01-19T01:34:00;10.30;;;7.80;;
12155;SDS011;6141;49.092;8.516;2023-01-19T01:36:28;9.53;;;7.57;;
12155;SDS011;6141;49.092;8.516;2023-01-19T01:39:00;13.10;;;8.60;;
12155;SDS011;6141;49.092;8.516;2023-01-19T01:41:28;12.35;;;8.65;;
12155;SDS011;6141;49.092;8.516;2023-01-19T01:43:58;10.07;;;8.57;;
12155;SDS011;6141;49.092;8.516;2023-01-19T01:46:28;9.00;;;7.63;;
12155;SDS011;6141;49.092;8.516;2023-01-19T01:48:59;9.83;;;7.87;;
12155;SDS011;6141;49.092;8.516;2023-01-19T01:51:31;9.00;;;7.97;;
12155;SDS011;6141;49.092;8.516;2023-01-19T01:54:09;9.27;;;8.33;;
12155;SDS011;6141;49.092;8.516;2023-01-19T01:56:42;10.93;;;8.23;;
12155;SDS011;6141;49.092;8.516;2023-01-19T01:59:13;11.27;;;8.47;;
12155;SDS011;6141;49.092;8.516;2023-01-19T02:01:51;9.27;;;8.37;;
12155;SDS011;6141;49.092;8.516;2023-01-19T02:04:39;9.77;;;8.30;;
12155;SDS011;6141;49.092;8.516;2023-01-19T02:07:13;9.83;;;8.67;;
12155;SDS011;6141;49.092;8.516;2023-01-19T02:10:04;10.37;;;8.23;;
12155;SDS011;6141;49.092;8.516;2023-01-19T02:12:50;9.13;;;8.23;;
12155;SDS011;6141;49.092;8.516;2023-01-19T02:15:36;8.40;;;7.50;;
12155;SDS011;6141;49.092;8.516;2023-01-19T02:18:05;9.53;;;8.13;;
12155;SDS011;6141;49.092;8.516;2023-01-19T02:20:33;10.27;;;8.17;;
12155;SDS011;6141;49.092;8.516;2023-01-19T02:23:04;8.93;;;8.03;;
12155;SDS011;6141;49.092;8.516;2023-01-19T02:25:42;9.30;;;8.40;;
12155;SDS011;6141;49.092;8.516;2023-01-19T02:28:11;10.43;;;8.40;;
12155;SDS011;6141;49.092;8.516;2023-01-19T02:30:40;9.57;;;7.40;;
12155;SDS011;6141;49.092;8.516;2023-01-19T02:33:10;10.00;;;8.90;;
12155;SDS011;6141;49.092;8.516;2023-01-19T02:35:38;10.23;;;7.87;;
12155;SDS011;6141;49.092;8.516;2023-01-19T02:38:07;9.93;;;8.43;;
12155;SDS011;6141;49.092;8.516;2023-01-19T02:40:39;12.47;;;9.07;;
12155;SDS011;6141;49.092;8.516;2023-01-19T02:43:11;11.17;;;8.93;;
12155;SDS011;6141;49.092;8.516;2023-01-19T02:45:41;10.77;;;8.27;;
12155;SDS011;6141;49.092;8.516;2023-01-19T02:48:10;11.90;;;8.97;;
12155;SDS011;6141;49.092;8.516;2023-01-19T02:50:39;10.07;;;8.77;;
12155;SDS011;6141;49.092;8.516;2023-01-19T02:53:17;11.03;;;8.43;;
12155;SDS011;6141;49.092;8.516;2023-01-19T02:56:09;10.60;;;9.50;;
12155;SDS011;6141;49.092;8.516;2023-01-19T02:58:58;10.17;;;8.50;;
12155;SDS011;6141;49.092;8.516;2023-01-19T03:01:34;11.10;;;8.57;;
12155;SDS011;6141;49.092;8.516;2023-01-19T03:04:15;12.90;;;8.73;;
12155;SDS011;6141;49.092;8.516;2023-01-19T03:06:57;12.47;;;8.60;;
12155;SDS011;6141;49.092;8.516;2023-01-19T03:09:30;9.60;;;8.20;;
12155;SDS011;6141;49.092;8.516;2023-01-19T03:12:09;11.07;;;8.73;;
12155;SDS011;6141;49.092;8.516;2023-01-19T03:14:44;12.83;;;8.40;;
12155;SDS011;6141;49.092;8.516;2023-01-19T03:17:16;11.13;;;8.77;;
12155;SDS011;6141;49.092;8.516;2023-01-19T03:19:45;11.43;;;8.87;;
12155;SDS011;6141;49.092;8.516;2023-01-19T03:22:17;7.90;;;6.73;;
12155;SDS011;6141;49.092;8.516;2023-01-19T03:24:51;10.30;;;7.40;;
12155;SDS011;6141;49.092;8.516;2023-01-19T03:27:25;13.53;;;8.77;;
12155;SDS011;6141;49.092;8.516;2023-01-19T03:29:56;11.07;;;8.43;;
12155;SDS011;6141;49.092;8.516;2023-01-19T03:32:27;10.50;;;8.50;;
12155;SDS011;6141;49.092;8.516;2023-01-19T03:34:59;10.03;;;8.33;;
12155;SDS011;6141;49.092;8.516;2023-01-19T03:37:30;9.13;;;8.17;;
12155;SDS011;6141;49.092;8.516;2023-01-19T03:40:00;11.33;;;8.70;;
12155;SDS011;6141;49.092;8.516;2023-01-19T03:42:30;10.57;;;8.53;;
12155;SDS011;6141;49.092;8.516;2023-01-19T03:44:59;10.77;;;8.87;;
12155;SDS011;6141;49.092;8.516;2023-01-19T03:47:28;11.33;;;8.93;;
12155;SDS011;6141;49.092;8.516;2023-01-19T03:49:56;11.37;;;8.87;;
12155;SDS011;6141;49.092;8.516;2023-01-19T03:52:28;10.70;;;8.77;;
12155;SDS011;6141;49.092;8.516;2023-01-19T03:54:59;10.57;;;9.43;;
12155;SDS011;6141;49.092;8.516;2023-01-19T03:57:30;12.40;;;9.60;;
12155;SDS011;6141;49.092;8.516;2023-01-19T03:59:58;11.00;;;9.60;;
12155;SDS011;6141;49.092;8.516;2023-01-19T04:02:37;13.07;;;9.20;;
12155;SDS011;6141;49.092;8.516;2023-01-19T04:05:05;14.97;;;9.40;;
12155;SDS011;6141;49.092;8.516;2023-01-19T04:07:34;12.57;;;9.73;;
12155;SDS011;6141;49.092;8.516;2023-01-19T04:10:03;12.20;;;9.43;;
12155;SDS011;6141;49.092;8.516;2023-01-19T04:12:33;11.90;;;9.83;;
12155;SDS011;6141;49.092;8.516;2023-01-19T04:15:01;11.40;;;10.00;;
12155;SDS011;6141;49.092;8.516;2023-01-19T04:17:30;9.90;;;8.20;;
12155;SDS011;6141;49.092;8.516;2023-01-19T04:19:58;15.03;;;10.10;;
12155;SDS011;6141;49.092;8.516;2023-01-19T04:22:26;14.23;;;10.77;;
12155;SDS011;6141;49.092;8.516;2023-01-19T04:24:55;13.07;;;10.57;;
12155;SDS011;6141;49.092;8.516;2023-01-19T04:27:23;13.03;;;10.77;;
12155;SDS011;6141;49.092;8.516;2023-01-19T04:29:52;14.47;;;11.03;;
12155;SDS011;6141;49.092;8.516;2023-01-19T04:32:21;11.83;;;10.43;;
12155;SDS011;6141;49.092;8.516;2023-01-19T04:34:49;13.37;;;10.57;;
12155;SDS011;6141;49.092;8.516;2023-01-19T04:37:17;14.40;;;10.40;;
12155;SDS011;6141;49.092;8.516;2023-01-19T04:39:45;12.97;;;11.03;;
12155;SDS011;6141;49.092;8.516;2023-01-19T04:42:14;12.37;;;11.00;;
12155;SDS011;6141;49.092;8.516;2023-01-19T04:44:42;12.83;;;10.50;;
12155;SDS011;6141;49.092;8.516;2023-01-19T04:47:11;14.40;;;11.20;;
12155;SDS011;6141;49.092;8.516;2023-01-19T04:49:40;13.63;;;10.40;;
12155;SDS011;6141;49.092;8.516;2023-01-19T04:52:08;16.57;;;11.37;;
12155;SDS011;6141;49.092;8.516;2023-01-19T04:54:36;13.60;;;10.80;;
12155;SDS011;6141;49.092;8.516;2023-01-19T04:57:04;13.27;;;10.70;;
12155;SDS011;6141;49.092;8.516;2023-01-19T04:59:32;15.20;;;10.80;;
12155;SDS011;6141;49.092;8.516;2023-01-19T05:02:01;12.93;;;10.70;;
12155;SDS011;6141;49.092;8.516;2023-01-19T05:04:30;12.33;;;11.00;;
12155;SDS011;6141;49.092;8.516;2023-01-19T05:06:59;13.00;;;10.93;;
12155;SDS011;6141;49.092;8.516;2023-01-19T05:09:27;16.07;;;10.90;;
12155;SDS011;6141;49.092;8.516;2023-01-19T05:11:55;12.00;;;10.70;;
12155;SDS011;6141;49.092;8.516;2023-01-19T05:14:24;16.87;;;11.47;;
12155;SDS011;6141;49.092;8.516;2023-01-19T05:16:52;12.87;;;10.77;;
12155;SDS011;6141;49.092;8.516;2023-01-19T05:19:20;12.87;;;10.27;;
12155;SDS011;6141;49.092;8.516;2023-01-19T05:21:50;13.80;;;10.90;;
12155;SDS011;6141;49.092;8.516;2023-01-19T05:24:19;13.33;;;10.90;;
12155;SDS011;6141;49.092;8.516;2023-01-19T05:26:48;13.67;;;11.17;;
12155;SDS011;6141;49.092;8.516;2023-01-19T05:29:16;12.73;;;10.73;;
12155;SDS011;6141;49.092;8.516;2023-01-19T05:31:44;13.73;;;11.13;;
12155;SDS011;6141;49.092;8.516;2023-01-19T05:34:13;13.07;;;11.10;;
12155;SDS011;6141;49.092;8.516;2023-01-19T05:36:41;14.83;;;10.57;;
12155;SDS011;6141;49.092;8.516;2023-01-19T05:39:14;13.17;;;10.70;;
12155;SDS011;6141;49.092;8.516;2023-01-19T05:41:42;14.67;;;11.63;;
12155;SDS011;6141;49.092;8.516;2023-01-19T05:44:11;12.43;;;10.17;;
12155;SDS011;6141;49.092;8.516;2023-01-19T05:46:40;12.63;;;10.50;;
12155;SDS011;6141;49.092;8.516;2023-01-19T05:49:08;12.13;;;10.03;;
12155;SDS011;6141;49.092;8.516;2023-01-19T05:51:38;12.93;;;10.77;;
12155;SDS011;6141;49.092;8.516;2023-01-19T05:54:11;13.80;;;10.70;;
12155;SDS011;6141;49.092;8.516;2023-01-19T05:56:42;12.27;;;10.00;;
12155;SDS011;6141;49.092;8.516;2023-01-19T05:59:10;12.20;;;10.13;;
12155;SDS011;6141;49.092;8.516;2023-01-19T06:01:38;13.17;;;10.37;;
12155;SDS011;6141;49.092;8.516;2023-01-19T06:04:07;12.47;;;9.83;;
12155;SDS011;6141;49.092;8.516;2023-01-19T06:06:35;13.63;;;10.40;;
12155;SDS011;6141;49.092;8.516;2023-01-19T06:09:03;10.77;;;9.53;;
12155;SDS011;6141;49.092;8.516;2023-01-19T06:11:34;13.10;;;10.20;;
12155;SDS011;6141;49.092;8.516;2023-01-19T06:14:02;12.00;;;9.63;;
12155;SDS011;6141;49.092;8.516;2023-01-19T06:16:30;11.77;;;9.23;;
12155;SDS011;6141;49.092;8.516;2023-01-19T06:18:59;15.50;;;10.13;;
12155;SDS011;6141;49.092;8.516;2023-01-19T06:21:27;12.50;;;9.20;;
12155;SDS011;6141;49.092;8.516;2023-01-19T06:23:56;10.77;;;9.60;;
12155;SDS011;6141;49.092;8.516;2023-01-19T06:26:24;11.90;;;9.30;;
12155;SDS011;6141;49.092;8.516;2023-01-19T06:28:54;11.33;;;9.83;;
12155;SDS011;6141;49.092;8.516;2023-01-19T06:31:22;13.90;;;10.17;;
12155;SDS011;6141;49.092;8.516;2023-01-19T06:33:50;12.53;;;10.23;;
12155;SDS011;6141;49.092;8.516;2023-01-19T06:36:20;17.33;;;10.70;;
12155;SDS011;6141;49.092;8.516;2023-01-19T06:38:50;14.90;;;10.10;;
12155;SDS011;6141;49.092;8.516;2023-01-19T06:41:18;10.43;;;9.33;;
12155;SDS011;6141;49.092;8.516;2023-01-19T06:43:46;13.10;;;10.33;;
12155;SDS011;6141;49.092;8.516;2023-01-19T06:46:16;10.83;;;9.37;;
12155;SDS011;6141;49.092;8.516;2023-01-19T06:48:44;11.90;;;9.70;;
12155;SDS011;6141;49.092;8.516;2023-01-19T06:51:13;14.30;;;10.07;;
12155;SDS011;6141;49.092;8.516;2023-01-19T06:53:41;12.73;;;9.80;;
12155;SDS011;6141;49.092;8.516;2023-01-19T06:56:09;11.07;;;9.37;;
12155;SDS011;6141;49.092;8.516;2023-01-19T06:58:38;11.87;;;9.63;;
12155;SDS011;6141;49.092;8.516;2023-01-19T07:01:08;11.80;;;9.77;;
12155;SDS011;6141;49.092;8.516;2023-01-19T07:03:38;11.70;;;8.87;;
12155;SDS011;6141;49.092;8.516;2023-01-19T07:06:06;12.23;;;9.60;;
12155;SDS011;6141;49.092;8.516;2023-01-19T07:08:36;11.77;;;9.13;;
12155;SDS011;6141;49.092;8.516;2023-01-19T07:11:06;12.70;;;9.70;;
12155;SDS011;6141;49.092;8.516;2023-01-19T07:13:55;10.23;;;8.90;;
12155;SDS011;6141;49.092;8.516;2023-01-19T07:16:23;12.07;;;9.57;;
12155;SDS011;6141;49.092;8.516;2023-01-19T07:18:53;12.57;;;9.23;;
12155;SDS011;6141;49.092;8.516;2023-01-19T07:21:22;11.77;;;8.80;;
12155;SDS011;6141;49.092;8.516;2023-01-19T07:23:52;12.23;;;9.23;;
12155;SDS011;6141;49.092;8.516;2023-01-19T07:26:20;12.50;;;9.30;;
12155;SDS011;6141;49.092;8.516;2023-01-19T07:28:50;10.47;;;8.87;;
12155;SDS011;6141;49.092;8.516;2023-01-19T07:31:19;10.47;;;8.60;;
12155;SDS011;6141;49.092;8.516;2023-01-19T07:33:47;11.80;;;8.40;;
12155;SDS011;6141;49.092;8.516;2023-01-19T07:36:17;10.90;;;8.17;;
12155;SDS011;6141;49.092;8.516;2023-01-19T07:38:45;10.40;;;8.17;;
12155;SDS011;6141;49.092;8.516;2023-01-19T07:41:13;10.50;;;8.27;;
12155;SDS011;6141;49.092;8.516;2023-01-19T07:43:42;9.13;;;7.60;;
12155;SDS011;6141;49.092;8.516;2023-01-19T07:46:10;11.07;;;8.60;;
12155;SDS011;6141;49.092;8.516;2023-01-19T07:48:39;10.43;;;8.23;;
12155;SDS011;6141;49.092;8.516;2023-01-19T07:51:09;9.57;;;7.20;;
12155;SDS011;6141;49.092;8.516;2023-01-19T07:53:44;10.73;;;8.20;;
12155;SDS011;6141;49.092;8.516;2023-01-19T07:56:13;10.40;;;7.87;;
12155;SDS011;6141;49.092;8.516;2023-01-19T07:58:41;9.33;;;7.83;;
12155;SDS011;6141;49.092;8.516;2023-01-19T08:01:10;9.80;;;8.07;;
12155;SDS011;6141;49.092;8.516;2023-01-19T08:03:39;9.60;;;8.03;;
12155;SDS011;6141;49.092;8.516;2023-01-19T08:06:09;9.70;;;8.70;;
12155;SDS011;6141;49.092;8.516;2023-01-19T08:08:45;11.70;;;8.60;;
12155;SDS011;6141;49.092;8.516;2023-01-19T08:11:14;10.47;;;8.13;;
12155;SDS011;6141;49.092;8.516;2023-01-19T08:13:42;9.80;;;8.40;;
12155;SDS011;6141;49.092;8.516;2023-01-19T08:16:11;10.57;;;8.67;;
12155;SDS011;6141;49.092;8.516;2023-01-19T08:18:40;10.93;;;8.43;;
12155;SDS011;6141;49.092;8.516;2023-01-19T08:21:08;10.53;;;8.40;;
12155;SDS011;6141;49.092;8.516;2023-01-19T08:23:37;10.77;;;8.10;;
12155;SDS011;6141;49.092;8.516;2023-01-19T08:26:20;10.97;;;7.67;;
12155;SDS011;6141;49.092;8.516;2023-01-19T08:28:52;9.47;;;7.63;;
12155;SDS011;6141;49.092;8.516;2023-01-19T08:31:22;10.10;;;7.80;;
12155;SDS011;6141;49.092;8.516;2023-01-19T08:33:51;9.67;;;8.10;;
12155;SDS011;6141;49.092;8.516;2023-01-19T08:36:23;9.67;;;7.60;;
12155;SDS011;6141;49.092;8.516;2023-01-19T08:38:51;8.77;;;7.53;;
12155;SDS011;6141;49.092;8.516;2023-01-19T08:41:21;9.20;;;8.27;;
12155;SDS011;6141;49.092;8.516;2023-01-19T08:43:49;8.57;;;7.67;;
12155;SDS011;6141;49.092;8.516;2023-01-19T08:46:18;9.57;;;7.70;;
12155;SDS011;6141;49.092;8.516;2023-01-19T08:48:47;10.03;;;7.10;;
12155;SDS011;6141;49.092;8.516;2023-01-19T08:51:18;9.40;;;7.83;;
12155;SDS011;6141;49.092;8.516;2023-01-19T08:53:46;8.13;;;7.13;;
12155;SDS011;6141;49.092;8.516;2023-01-19T08:56:15;9.57;;;7.77;;
12155;SDS011;6141;49.092;8.516;2023-01-19T08:58:47;10.47;;;7.83;;
12155;SDS011;6141;49.092;8.516;2023-01-19T09:01:33;7.90;;;7.10;;
12155;SDS011;6141;49.092;8.516;2023-01-19T09:04:03;10.67;;;7.40;;
12155;SDS011;6141;49.092;8.516;2023-01-19T09:06:31;10.57;;;8.40;;
12155;SDS011;6141;49.092;8.516;2023-01-19T09:09:00;10.27;;;7.60;;
12155;SDS011;6141;49.092;8.516;2023-01-19T09:11:28;9.40;;;7.67;;
12155;SDS011;6141;49.092;8.516;2023-01-19T09:13:58;8.97;;;7.47;;
12155;SDS011;6141;49.092;8.516;2023-01-19T09:16:26;8.67;;;7.77;;
12155;SDS011;6141;49.092;8.516;2023-01-19T09:18:55;10.60;;;7.43;;
12155;SDS011;6141;49.092;8.516;2023-01-19T09:21:24;8.53;;;7.23;;
12155;SDS011;6141;49.092;8.516;2023-01-19T09:23:52;11.53;;;7.57;;
12155;SDS011;6141;49.092;8.516;2023-01-19T09:26:21;10.50;;;7.63;;
12155;SDS011;6141;49.092;8.516;2023-01-19T09:28:49;8.47;;;7.57;;
12155;SDS011;6141;49.092;8.516;2023-01-19T09:31:19;10.03;;;7.27;;
12155;SDS011;6141;49.092;8.516;2023-01-19T09:33:48;9.00;;;7.37;;
12155;SDS011;6141;49.092;8.516;2023-01-19T09:36:16;9.97;;;7.30;;
12155;SDS011;6141;49.092;8.516;2023-01-19T09:38:44;9.63;;;7.40;;
12155;SDS011;6141;49.092;8.516;2023-01-19T09:41:15;10.53;;;7.83;;
12155;SDS011;6141;49.092;8.516;2023-01-19T09:43:47;9.83;;;7.40;;
12155;SDS011;6141;49.092;8.516;2023-01-19T09:46:24;7.60;;;6.90;;
12155;SDS011;6141;49.092;8.516;2023-01-19T09:48:57;9.60;;;7.60;;
12155;SDS011;6141;49.092;8.516;2023-01-19T09:51:32;8.33;;;6.50;;
12155;SDS011;6141;49.092;8.516;2023-01-19T09:54:04;8.30;;;6.63;;
12155;SDS011;6141;49.092;8.516;2023-01-19T09:56:38;8.63;;;7.40;;
12155;SDS011;6141;49.092;8.516;2023-01-19T09:59:16;8.10;;;6.90;;
12155;SDS011;6141;49.092;8.516;2023-01-19T10:04:52;8.60;;;7.07;;
12155;SDS011;6141;49.092;8.516;2023-01-19T10:07:31;9.00;;;7.10;;
12155;SDS011;6141;49.092;8.516;2023-01-19T10:10:12;9.17;;;7.17;;
12155;SDS011;6141;49.092;8.516;2023-01-19T10:13:04;8.30;;;7.40;;
12155;SDS011;6141;49.092;8.516;2023-01-19T10:15:55;7.43;;;6.73;;
12155;SDS011;6141;49.092;8.516;2023-01-19T10:18:36;10.30;;;7.40;;
12155;SDS011;6141;49.092;8.516;2023-01-19T10:21:16;9.70;;;7.67;;
12155;SDS011;6141;49.092;8.516;2023-01-19T10:23:49;8.90;;;7.97;;
12155;SDS011;6141;49.092;8.516;2023-01-19T10:26:21;8.90;;;7.37;;
12155;SDS011;6141;49.092;8.516;2023-01-19T10:28:52;9.90;;;7.50;;
12155;SDS011;6141;49.092;8.516;2023-01-19T10:31:23;8.43;;;7.07;;
12155;SDS011;6141;49.092;8.516;2023-01-19T10:33:53;8.27;;;7.23;;
12155;SDS011;6141;49.092;8.516;2023-01-19T10:36:23;12.37;;;8.37;;
12155;SDS011;6141;49.092;8.516;2023-01-19T10:38:55;9.60;;;7.63;;
12155;SDS011;6141;49.092;8.516;2023-01-19T10:41:25;11.23;;;7.80;;
12155;SDS011;6141;49.092;8.516;2023-01-19T10:43:58;9.73;;;7.80;;
12155;SDS011;6141;49.092;8.516;2023-01-19T10:46:31;11.53;;;7.93;;
12155;SDS011;6141;49.092;8.516;2023-01-19T10:49:05;8.87;;;7.90;;
12155;SDS011;6141;49.092;8.516;2023-01-19T10:51:36;9.00;;;7.60;;
12155;SDS011;6141;49.092;8.516;2023-01-19T10:54:13;9.23;;;7.63;;
12155;SDS011;6141;49.092;8.516;2023-01-19T10:56:42;8.90;;;7.47;;
12155;SDS011;6141;49.092;8.516;2023-01-19T10:59:28;10.93;;;8.10;;
12155;SDS011;6141;49.092;8.516;2023-01-19T11:02:02;9.57;;;7.90;;
12155;SDS011;6141;49.092;8.516;2023-01-19T11:04:46;8.27;;;7.37;;
12155;SDS011;6141;49.092;8.516;2023-01-19T11:07:18;9.03;;;7.60;;
12155;SDS011;6141;49.092;8.516;2023-01-19T11:09:48;8.73;;;7.50;;
12155;SDS011;6141;49.092;8.516;2023-01-19T11:12:38;11.43;;;8.07;;
12155;SDS011;6141;49.092;8.516;2023-01-19T11:15:11;11.20;;;8.10;;
12155;SDS011;6141;49.092;8.516;2023-01-19T11:17:42;10.07;;;7.80;;
12155;SDS011;6141;49.092;8.516;2023-01-19T11:20:18;8.40;;;7.57;;
12155;SDS011;6141;49.092;8.516;2023-01-19T11:22:51;9.60;;;7.70;;
12155;SDS011;6141;49.092;8.516;2023-01-19T11:25:31;8.83;;;7.70;;
12155;SDS011;6141;49.092;8.516;2023-01-19T11:28:02;9.50;;;8.40;;
12155;SDS011;6141;49.092;8.516;2023-01-19T11:30:30;10.47;;;8.13;;
12155;SDS011;6141;49.092;8.516;2023-01-19T11:33:03;11.73;;;8.43;;
12155;SDS011;6141;49.092;8.516;2023-01-19T11:35:34;9.20;;;8.03;;
12155;SDS011;6141;49.092;8.516;2023-01-19T11:38:04;10.00;;;8.13;;
12155;SDS011;6141;49.092;8.516;2023-01-19T11:40:36;9.27;;;7.93;;
12155;SDS011;6141;49.092;8.516;2023-01-19T11:43:07;9.77;;;7.07;;
12155;SDS011;6141;49.092;8.516;2023-01-19T11:45:37;10.53;;;7.97;;
12155;SDS011;6141;49.092;8.516;2023-01-19T11:48:06;9.83;;;7.73;;
12155;SDS011;6141;49.092;8.516;2023-01-19T11:50:49;8.77;;;7.87;;
12155;SDS011;6141;49.092;8.516;2023-01-19T11:53:19;10.30;;;7.23;;
12155;SDS011;6141;49.092;8.516;2023-01-19T11:55:52;11.23;;;7.70;;
12155;SDS011;6141;49.092;8.516;2023-01-19T11:58:23;12.10;;;8.33;;
12155;SDS011;6141;49.092;8.516;2023-01-19T12:00:53;9.83;;;7.93;;
12155;SDS011;6141;49.092;8.516;2023-01-19T12:03:27;10.87;;;7.97;;
12155;SDS011;6141;49.092;8.516;2023-01-19T12:06:03;11.33;;;7.90;;
12155;SDS011;6141;49.092;8.516;2023-01-19T12:08:34;9.53;;;7.47;;
12155;SDS011;6141;49.092;8.516;2023-01-19T12:11:05;10.00;;;7.97;;
12155;SDS011;6141;49.092;8.516;2023-01-19T12:13:37;8.57;;;7.67;;
12155;SDS011;6141;49.092;8.516;2023-01-19T12:16:07;10.03;;;8.27;;
12155;SDS011;6141;49.092;8.516;2023-01-19T12:18:41;9.77;;;8.03;;
12155;SDS011;6141;49.092;8.516;2023-01-19T12:21:14;8.23;;;7.43;;
12155;SDS011;6141;49.092;8.516;2023-01-19T12:23:45;11.17;;;8.20;;
12155;SDS011;6141;49.092;8.516;2023-01-19T12:26:23;8.57;;;7.40;;
12155;SDS011;6141;49.092;8.516;2023-01-19T12:28:55;10.00;;;7.77;;
12155;SDS011;6141;49.092;8.516;2023-01-19T12:31:27;8.97;;;8.07;;
12155;SDS011;6141;49.092;8.516;2023-01-19T12:33:56;9.97;;;8.07;;
12155;SDS011;6141;49.092;8.516;2023-01-19T12:37:00;10.30;;;8.13;;
12155;SDS011;6141;49.092;8.516;2023-01-19T12:39:30;9.17;;;7.87;;
12155;SDS011;6141;49.092;8.516;2023-01-19T12:42:04;12.13;;;8.00;;
12155;SDS011;6141;49.092;8.516;2023-01-19T12:44:38;9.30;;;8.03;;
12155;SDS011;6141;49.092;8.516;2023-01-19T12:47:18;9.87;;;8.33;;
12155;SDS011;6141;49.092;8.516;2023-01-19T12:49:50;10.67;;;8.43;;
12155;SDS011;6141;49.092;8.516;2023-01-19T12:52:25;11.27;;;7.77;;
12155;SDS011;6141;49.092;8.516;2023-01-19T12:55:00;11.57;;;8.10;;
12155;SDS011;6141;49.092;8.516;2023-01-19T12:57:36;9.87;;;8.87;;
12155;SDS011;6141;49.092;8.516;2023-01-19T13:00:26;10.30;;;8.30;;
12155;SDS011;6141;49.092;8.516;2023-01-19T13:03:00;10.13;;;8.23;;
12155;SDS011;6141;49.092;8.516;2023-01-19T13:05:48;11.77;;;8.33;;
12155;SDS011;6141;49.092;8.516;2023-01-19T13:08:22;8.93;;;8.03;;
12155;SDS011;6141;49.092;8.516;2023-01-19T13:16:56;9.07;;;8.10;;
12155;SDS011;6141;49.092;8.516;2023-01-19T13:19:35;9.87;;;7.80;;
12155;SDS011;6141;49.092;8.516;2023-01-19T13:25:32;12.07;;;8.57;;
12155;SDS011;6141;49.092;8.516;2023-01-19T13:28:06;10.50;;;8.33;;
12155;SDS011;6141;49.092;8.516;2023-01-19T13:30:38;9.20;;;7.60;;
12155;SDS011;6141;49.092;8.516;2023-01-19T13:33:18;9.10;;;8.20;;
12155;SDS011;6141;49.092;8.516;2023-01-19T13:35:50;11.03;;;7.77;;
12155;SDS011;6141;49.092;8.516;2023-01-19T13:38:21;9.67;;;7.80;;
12155;SDS011;6141;49.092;8.516;2023-01-19T13:40:51;9.23;;;7.67;;
12155;SDS011;6141;49.092;8.516;2023-01-19T13:43:23;10.00;;;8.13;;
12155;SDS011;6141;49.092;8.516;2023-01-19T13:45:54;9.40;;;7.53;;
12155;SDS011;6141;49.092;8.516;2023-01-19T13:48:23;9.70;;;7.60;;
12155;SDS011;6141;49.092;8.516;2023-01-19T13:50:55;8.53;;;7.30;;
12155;SDS011;6141;49.092;8.516;2023-01-19T13:53:26;11.33;;;7.30;;
12155;SDS011;6141;49.092;8.516;2023-01-19T13:56:07;10.40;;;7.27;;
12155;SDS011;6141;49.092;8.516;2023-01-19T13:58:59;8.73;;;7.07;;
12155;SDS011;6141;49.092;8.516;2023-01-19T14:01:30;9.33;;;6.80;;
12155;SDS011;6141;49.092;8.516;2023-01-19T14:03:59;10.83;;;7.30;;
12155;SDS011;6141;49.092;8.516;2023-01-19T14:06:32;8.97;;;6.40;;
12155;SDS011;6141;49.092;8.516;2023-01-19T14:14:40;8.43;;;6.77;;
12155;SDS011;6141;49.092;8.516;2023-01-19T14:17:17;10.40;;;6.40;;
12155;SDS011;6141;49.092;8.516;2023-01-19T14:19:49;9.07;;;6.50;;
12155;SDS011;6141;49.092;8.516;2023-01-19T14:22:38;8.30;;;6.10;;
12155;SDS011;6141;49.092;8.516;2023-01-19T14:25:29;9.93;;;6.30;;
12155;SDS011;6141;49.092;8.516;2023-01-19T14:30:57;7.30;;;5.20;;
12155;SDS011;6141;49.092;8.516;2023-01-19T14:33:39;6.60;;;5.00;;
12155;SDS011;6141;49.092;8.516;2023-01-19T14:36:09;6.77;;;5.30;;
12155;SDS011;6141;49.092;8.516;2023-01-19T14:38:55;5.40;;;4.83;;
12155;SDS011;6141;49.092;8.516;2023-01-19T14:41:26;7.63;;;5.63;;
12155;SDS011;6141;49.092;8.516;2023-01-19T14:43:58;5.73;;;5.17;;
12155;SDS011;6141;49.092;8.516;2023-01-19T14:46:27;5.93;;;4.97;;
12155;SDS011;6141;49.092;8.516;2023-01-19T14:48:57;6.50;;;4.83;;
12155;SDS011;6141;49.092;8.516;2023-01-19T14:51:29;6.13;;;4.50;;
12155;SDS011;6141;49.092;8.516;2023-01-19T14:53:58;5.40;;;4.87;;
12155;SDS011;6141;49.092;8.516;2023-01-19T14:56:28;6.07;;;4.50;;
12155;SDS011;6141;49.092;8.516;2023-01-19T14:59:04;5.47;;;4.60;;
12155;SDS011;6141;49.092;8.516;2023-01-19T15:01:36;4.77;;;4.00;;
12155;SDS011;6141;49.092;8.516;2023-01-19T15:04:04;4.97;;;4.00;;
12155;SDS011;6141;49.092;8.516;2023-01-19T15:06:33;6.43;;;4.00;;
12155;SDS011;6141;49.092;8.516;2023-01-19T15:09:07;6.27;;;4.13;;
12155;SDS011;6141;49.092;8.516;2023-01-19T15:11:38;7.97;;;4.60;;
12155;SDS011;6141;49.092;8.516;2023-01-19T15:14:09;5.37;;;4.33;;
12155;SDS011;6141;49.092;8.516;2023-01-19T15:16:40;6.90;;;4.57;;
12155;SDS011;6141;49.092;8.516;2023-01-19T15:19:12;5.60;;;4.27;;
12155;SDS011;6141;49.092;8.516;2023-01-19T15:21:42;6.80;;;4.53;;
12155;SDS011;6141;49.092;8.516;2023-01-19T15:24:12;4.17;;;3.50;;
12155;SDS011;6141;49.092;8.516;2023-01-19T15:26:43;5.10;;;4.00;;
12155;SDS011;6141;49.092;8.516;2023-01-19T15:29:17;3.87;;;3.17;;
12155;SDS011;6141;49.092;8.516;2023-01-19T15:31:49;3.90;;;3.03;;
12155;SDS011;6141;49.092;8.516;2023-01-19T15:34:19;6.07;;;3.50;;
12155;SDS011;6141;49.092;8.516;2023-01-19T15:36:47;8.40;;;5.93;;
12155;SDS011;6141;49.092;8.516;2023-01-19T15:39:15;5.40;;;4.10;;